Airfield :
LOGIN :

Register | Disclaimer

   EN    FR    IT 

 










Legend :    VFR   Marginal VFR   IFR   Intensive IFR   Very Intensive IFR
Visi :
Ceiling :
>= 8 km
>= 3000ft
5 to 8 km
1000 to 3000 ft
1500m to 5 km
500 to 1000 ft
800 to 1500m
200 to 500 ft
< 800m
< 200 ft
Symbols :   Thunderstorms  Fog  Heavy snow  Heavy precipitations  Wind > 20 kt
SIGMETs :     Misc.  Thunderstorms  Icing  Turbulence  Mountain Waves  Volcanic Ashes







- Airport Elevation : 510 ft


LJCE - Cerklje

CURRENT METAR :
  • 251100Z 06006KT 010V110 9999 FEW020 SCT030 BKN090 17/11 Q1021 RMK BLU

EXPIRED METARs :
  • 251030Z 05006KT 020V090 9999 FEW005 SCT030 BKN090 16/12 Q1021 RMK BLU
  • 251000Z 08006KT 050V110 9999 FEW005 SCT030 BKN090 16/12 Q1021 RMK BLU
  • 250930Z 06005KT 030V090 9999 FEW005 SCT010 BKN030 15/12 Q1021 RMK BLU
  • 250900Z 08003KT 030V120 9999 FEW005 SCT010 OVC035 14/12 Q1021 RMK BLU
  • 250830Z 09003KT 8000 -RA FEW003 OVC035 14/12 Q1021 RMK BLU

TAF TAF LJCE
Valid from the 25 at 09:00 until the 25 at 18:00 UTC


250800Z 2509/2518 09005KT 9999 SCT030 OVC060
TEMPO 2509/2512 6000 -RA BKN030
No reported NOTAMs for that airfield.



MET'MAP, your aeronautical weather chart ! - Copyright ORBIFLY December 2007 - Disclaimer

ORBIFLY MET'MAP TEAM :

Programming & Development : Alexandra Zaïnal
Concept & Development : Baudouin d'Aumeries
Co-Development & Prog : Marc-Olivier Méhu
Technical & hardware support : Manuel Goepfert

Contact : metmap@orbifly.com




SOURCES & CREDITS :

   NOAA